User: anonymous   Login
Location: Ku?niki
(51.4449°N, 17.8974°E)
Time: 16:21:46
(UTC+00:00)
Language:

Solar Orbiter Flyby

On November 27 2021, the interplanetary probe Solar Orbiter will fly past the Earth. The Earth will give it a "gravity assist" and put it on a trajectory to reach Venus where it will receive a further assist. If you know where to look and live in the right part of the world, you will have a chance to see it through binoculars or a telescope.

Flyby data
Time of closest approachNov 27, 04:30:30
Distance of closest approach6,833 km
Speed at closest approach15.139 km/s
Speed at infinity (rel. to Earth)10.607 km/s

Flyby Overview

Ground Track

Position Table

Click on a table row to load a finder chart corresponding to that time, or alternatively, you can go straight to a finder chart for a time near closest approach by clicking here.

Time Distance (km) Brightness Altitude Azimuth Right ascension Declination Constellation Sun altitude
Nov 27, 02:30:3085,83514.0-24.3°106.8°14h 19.0m-28° 57'Hydra-35.8°
Nov 27, 02:40:3079,05313.8-22.7°108.8°14h 17.9m-29° 1'Hydra-34.2°
Nov 27, 02:50:3072,24813.6-21.1°110.8°14h 16.5m-29° 6'Hydra-32.7°
Nov 27, 03:00:3065,41713.4-19.4°112.9°14h 14.8m-29° 11'Hydra-31.2°
Nov 27, 03:10:3058,55513.1-17.8°115.1°14h 12.7m-29° 18'Hydra-29.6°
Nov 27, 03:20:3051,65512.8-16.1°117.4°14h 10.0m-29° 26'Hydra-28.0°
Nov 27, 03:30:3044,70612.5-14.4°119.9°14h 6.4m-29° 37'Hydra-26.5°
Nov 27, 03:40:3037,69612.0-12.6°122.7°14h 1.5m-29° 52'Hydra-24.9°
Nov 27, 03:50:3030,60211.5-10.7°126.0°13h 54.3m-30° 15'Centaurus-23.4°
Nov 27, 04:00:3023,38910.9-8.6°130.2°13h 42.8m-30° 52'Centaurus-21.8°
Nov 27, 04:10:3016,0049.9-6.0°136.7°13h 20.9m-32° 6'Centaurus-20.3°
Nov 27, 04:20:308,4158.2-2.8°151.5°12h 20.3m-35° 39'Hydra-18.8°
Nov 27, 04:30:303,462--7.7°239.3°5h 27.1m-24° 51'Lepus-17.2°
Nov 27, 04:40:3010,161--16.6°300.3°2h 0.4m4° 21'Pisces-15.7°
Nov 27, 04:50:3017,7628.8-20.6°313.2°1h 20.0m6° 59'Pisces-14.2°
Nov 27, 05:00:3025,0839.6-23.1°320.1°1h 2.6m7° 33'Pisces-12.7°
Nov 27, 05:10:3032,21310.1-24.8°325.1°0h 52.8m7° 43'Pisces-11.3°
Nov 27, 05:20:3039,21510.6-26.1°329.4°0h 46.5m7° 47'Pisces-9.8°
Nov 27, 05:30:3046,12510.9-27.2°333.2°0h 42.1m7° 49'Pisces-8.4°
Nov 27, 05:40:3052,96411.2-28.0°336.8°0h 38.8m7° 49'Pisces-7.0°
Nov 27, 05:50:3059,74811.5-28.7°340.2°0h 36.3m7° 49'Pisces-5.6°
Nov 27, 06:00:3066,48511.8-29.3°343.5°0h 34.2m7° 49'Pisces-4.2°
Nov 27, 06:10:3073,18412.0-29.8°346.8°0h 32.6m7° 48'Pisces-2.8°
Nov 27, 06:20:3079,84912.2-30.2°350.0°0h 31.2m7° 48'Pisces-1.5°
Nov 27, 06:30:3086,48512.3-30.4°353.2°0h 30.1m7° 48'Pisces-0.2°
 

DLR